Evans, Illinois
Current Conditions -  °F | °C
As of 12:35 AM on Monday 26 Jan 2015 (Local Time) from KC75 Reporting Station
Clear Clear  
Wind Chill: 10°   Ceiling: Unl
Heat Index: 19°   Visibility: 10mi
Dew Point: 13°   Wind: 7mph
Humidity: 78%   Direction: 340°NNW
Pressure: 30.02"   Gusts: NA
Location:  41.0632°N, 89.0208°W
Report Text: KC75 260635Z AUTO 34006KT 10SM CLR M07/M10 A3002 RMK AO2 T10701103
Loading
Personal Weather Stations






























Interactive Weather Map New forecast layout! Learn more

10-Day Weather Forecast

Advertisements
Track Severe Weather on mobile